Time;durP1;ratioP1;P1;durP2;ratioP2;P2;SDS_P1;SDS_P2;PMS_P1;PMS_P2;Temp;Humidity;BMP_temperature;BMP_pressure;BME280_temperature;BME280_humidity;BME280_pressure;Samples;Min_cycle;Max_cycle;Signal;HPM_P1;HPM_P2
2024/04/05 00:01:32;;;;;;;18.52;3.28;;;;;;;9.60;100.00;99706.31;10568409;28;20036;-38
2024/04/05 00:06:33;;;;;;;22.73;3.50;;;;;;;9.62;100.00;99698.53;10569001;28;20382;-41
2024/04/05 00:11:34;;;;;;;24.27;3.85;;;;;;;9.64;100.00;99700.34;10547807;28;20413;-37
2024/04/05 00:16:34;;;;;;;26.42;4.10;;;;;;;9.66;100.00;99711.69;10564655;28;20040;-39
2024/04/05 00:21:37;;;;;;;21.55;3.53;;;;;;;9.69;100.00;99709.16;10561780;28;20040;-40
2024/04/05 00:26:37;;;;;;;24.88;3.45;;;;;;;9.75;100.00;99704.06;10559864;28;20127;-40
2024/04/05 00:31:38;;;;;;;21.30;3.50;;;;;;;9.76;100.00;99708.44;10559322;28;20482;-41
2024/04/05 00:36:38;;;;;;;18.35;3.35;;;;;;;9.81;100.00;99708.56;10559576;28;20097;-39
2024/04/05 00:41:39;;;;;;;23.25;3.53;;;;;;;9.79;100.00;99705.03;10559489;28;20516;-38
2024/04/05 00:46:40;;;;;;;22.60;3.95;;;;;;;9.83;100.00;99714.72;10556417;28;20118;-38
2024/04/05 00:51:40;;;;;;;22.88;3.72;;;;;;;9.82;100.00;99715.53;10556480;28;20032;-39
2024/04/05 00:56:41;;;;;;;22.77;3.65;;;;;;;9.90;100.00;99705.31;10558300;28;20074;-37
2024/04/05 01:01:42;;;;;;;25.92;4.00;;;;;;;9.99;100.00;99703.78;10554246;28;20055;-36
2024/04/05 01:06:43;;;;;;;23.27;4.20;;;;;;;10.07;100.00;99697.84;10553259;28;20424;-39
2024/04/05 01:11:54;;;;;;;22.30;3.85;;;;;;;10.04;100.00;99700.38;10568226;28;20039;-39
2024/04/05 01:16:54;;;;;;;22.85;3.60;;;;;;;10.03;100.00;99696.03;10571080;28;20059;-39
2024/04/05 01:21:55;;;;;;;19.10;3.40;;;;;;;10.01;100.00;99695.97;10570483;28;20389;-39
2024/04/05 01:26:56;;;;;;;18.48;2.97;;;;;;;10.05;100.00;99689.09;10569409;28;20378;-39
2024/04/05 01:31:56;;;;;;;19.52;3.63;;;;;;;10.05;100.00;99687.34;10568769;28;20039;-38
2024/04/05 01:36:58;;;;;;;19.92;3.80;;;;;;;10.03;100.00;99685.59;10566700;28;20483;-38
2024/04/05 01:41:58;;;;;;;18.77;3.67;;;;;;;10.07;100.00;99687.41;10565819;28;20032;-40
2024/04/05 01:46:59;;;;;;;19.75;4.03;;;;;;;10.07;100.00;99674.34;10560401;28;20028;-39
2024/04/05 01:51:59;;;;;;;19.75;3.40;;;;;;;10.05;100.00;99671.69;10563538;28;20027;-38
2024/04/05 01:57:00;;;;;;;15.43;3.55;;;;;;;10.02;100.00;99666.41;10547750;28;20505;-38
2024/04/05 02:02:01;;;;;;;18.85;3.40;;;;;;;10.03;100.00;99676.03;10561017;28;20047;-38
2024/04/05 02:07:01;;;;;;;19.80;3.58;;;;;;;10.00;100.00;99673.34;10561737;28;20043;-38
2024/04/05 02:12:03;;;;;;;12.18;2.88;;;;;;;9.99;100.00;99666.38;10558723;28;20039;-40
2024/04/05 02:17:04;;;;;;;17.10;3.20;;;;;;;9.97;100.00;99666.31;10557285;28;20511;-39
2024/04/05 02:22:08;;;;;;;14.52;3.28;;;;;;;9.95;100.00;99674.94;10559069;28;20039;-40
2024/04/05 02:27:09;;;;;;;12.20;3.00;;;;;;;9.91;100.00;99694.88;10558052;28;20114;-38
2024/04/05 02:32:10;;;;;;;13.38;2.90;;;;;;;9.88;100.00;99694.81;10554571;28;20528;-39
2024/04/05 02:37:10;;;;;;;14.75;2.95;;;;;;;9.87;100.00;99686.97;10556523;28;20043;-39
2024/04/05 02:42:11;;;;;;;16.60;3.10;;;;;;;9.90;100.00;99694.88;10552697;28;20065;-39
2024/04/05 02:47:12;;;;;;;17.33;3.22;;;;;;;9.93;100.00;99693.19;10551473;28;20035;-40
2024/04/05 02:52:12;;;;;;;20.80;3.60;;;;;;;9.93;100.00;99693.19;10549747;28;20131;-40
2024/04/05 02:57:13;;;;;;;12.23;3.10;;;;;;;9.91;100.00;99701.84;10567767;28;20050;-39
2024/04/05 03:02:14;;;;;;;15.82;3.10;;;;;;;9.91;100.00;99709.66;10568846;28;20093;-39
2024/04/05 03:07:14;;;;;;;11.77;2.80;;;;;;;9.95;100.00;99708.88;10572074;28;20427;-36
2024/04/05 03:12:16;;;;;;;12.93;3.15;;;;;;;9.95;100.00;99694.09;10574783;28;20036;-40
2024/04/05 03:17:16;;;;;;;13.18;2.88;;;;;;;9.95;100.00;99701.06;10555095;28;20382;-39
2024/04/05 03:22:17;;;;;;;10.93;3.10;;;;;;;9.95;100.00;99701.94;10572117;28;20036;-41
2024/04/05 03:27:18;;;;;;;15.27;3.17;;;;;;;9.95;100.00;99691.50;10572980;28;20036;-39
2024/04/05 03:32:18;;;;;;;10.95;2.97;;;;;;;9.95;100.00;99686.28;10548749;28;20047;-40
2024/04/05 03:37:19;;;;;;;12.40;3.25;;;;;;;9.93;100.00;99690.59;10568757;28;20031;-37
2024/04/05 03:42:20;;;;;;;15.07;3.55;;;;;;;9.95;100.00;99704.53;10568478;28;20370;-41
2024/04/05 03:47:21;;;;;;;14.00;3.30;;;;;;;9.93;100.00;99706.25;10568801;28;20035;-39
2024/04/05 03:52:22;;;;;;;12.45;3.20;;;;;;;9.94;100.00;99715.84;10565458;28;20047;-39
2024/04/05 03:57:22;;;;;;;11.48;3.20;;;;;;;9.98;100.00;99720.28;10565220;28;20051;-39
2024/04/05 04:02:23;;;;;;;18.65;3.60;;;;;;;10.00;100.00;99720.31;10565717;28;20040;-38
2024/04/05 04:07:24;;;;;;;17.13;3.45;;;;;;;10.11;100.00;99720.56;10563451;28;20302;-39
2024/04/05 04:12:25;;;;;;;13.32;3.35;;;;;;;10.14;100.00;99723.25;10562353;28;20031;-41
2024/04/05 04:17:26;;;;;;;11.63;3.60;;;;;;;10.19;100.00;99722.50;10544462;28;20109;-39
2024/04/05 04:22:27;;;;;;;16.42;3.90;;;;;;;10.22;100.00;99729.53;10560250;28;20450;-38
2024/04/05 04:27:27;;;;;;;13.95;4.10;;;;;;;10.28;100.00;99734.06;10533333;28;20123;-40
2024/04/05 04:32:29;;;;;;;16.98;4.25;;;;;;;10.33;100.00;99732.41;10554592;28;20044;-38
2024/04/05 04:37:30;;;;;;;18.15;4.60;;;;;;;10.36;100.00;99737.72;10557015;28;20036;-38
2024/04/05 04:42:31;;;;;;;16.50;4.90;;;;;;;10.40;100.00;99742.16;10573295;28;20512;-39
2024/04/05 04:47:31;;;;;;;22.45;4.60;;;;;;;10.41;100.00;99739.59;10572021;28;20093;-39
2024/04/05 04:52:32;;;;;;;14.10;4.18;;;;;;;10.43;100.00;99740.50;10570892;28;20501;-40
2024/04/05 04:57:33;;;;;;;17.63;4.93;;;;;;;10.42;100.00;99743.94;10569493;28;20039;-40
2024/04/05 05:02:35;;;;;;;19.98;4.80;;;;;;;10.44;100.00;99725.72;10568448;28;20042;-39
2024/04/05 05:07:35;;;;;;;17.63;4.55;;;;;;;10.51;100.00;99727.59;10548488;28;20066;-38
2024/04/05 05:12:37;;;;;;;19.77;4.82;;;;;;;10.54;100.00;99737.25;10566279;28;20035;-38
2024/04/05 05:17:37;;;;;;;16.13;4.20;;;;;;;10.57;100.00;99738.19;10566644;28;20043;-36
2024/04/05 05:22:38;;;;;;;16.00;4.38;;;;;;;10.60;100.00;99735.63;10564050;28;20089;-38
2024/04/05 05:27:38;;;;;;;16.67;4.53;;;;;;;10.65;100.00;99740.94;10562022;28;20044;-39
2024/04/05 05:32:39;;;;;;;15.88;4.18;;;;;;;10.68;100.00;99752.34;10560425;28;20047;-38
2024/04/05 05:37:41;;;;;;;11.68;4.30;;;;;;;10.71;100.00;99748.91;10560411;28;20497;-40
2024/04/05 05:42:41;;;;;;;16.17;4.75;;;;;;;10.74;100.00;99750.72;10560995;28;20147;-41
2024/04/05 05:47:42;;;;;;;18.05;4.22;;;;;;;10.76;100.00;99754.25;10557952;28;20044;-38
2024/04/05 05:52:43;;;;;;;17.48;4.20;;;;;;;10.77;100.00;99745.56;10557318;28;20036;-39
2024/04/05 05:57:44;;;;;;;18.83;4.75;;;;;;;10.77;100.00;99737.72;10558758;28;20040;-36
2024/04/05 06:02:44;;;;;;;20.38;4.50;;;;;;;10.76;100.00;99742.06;10554615;28;20408;-39
2024/04/05 06:07:46;;;;;;;15.20;4.85;;;;;;;10.72;100.00;99714.13;10552961;28;20044;-39
2024/04/05 06:12:46;;;;;;;16.73;4.72;;;;;;;10.70;100.00;99718.41;10551975;28;20354;-39
2024/04/05 06:17:47;;;;;;;20.88;5.25;;;;;;;10.71;100.00;99717.56;10555113;28;20052;-39
2024/04/05 06:22:47;;;;;;;22.52;5.30;;;;;;;10.71;100.00;99721.91;10550581;28;20048;-39
2024/04/05 06:27:49;;;;;;;17.38;4.90;;;;;;;10.72;100.00;99718.44;10570032;28;20043;-39
2024/04/05 06:32:49;;;;;;;18.30;5.30;;;;;;;10.69;100.00;99685.31;10568692;28;20031;-39
2024/04/05 06:37:50;;;;;;;19.02;5.15;;;;;;;10.66;100.00;99688.72;10569594;28;20047;-40
2024/04/05 06:42:50;;;;;;;15.75;4.90;;;;;;;10.63;100.00;99727.88;10572034;28;20062;-39
2024/04/05 06:47:51;;;;;;;14.40;4.63;;;;;;;10.63;100.00;99727.00;10576651;28;20524;-39
2024/04/05 06:52:58;;;;;;;16.05;5.22;;;;;;;10.64;100.00;99728.75;10574866;28;20048;-39
2024/04/05 06:58:00;;;;;;;19.35;5.43;;;;;;;10.67;100.00;99740.13;10571418;28;20051;-39
2024/04/05 07:03:01;;;;;;;16.27;5.18;;;;;;;10.76;100.00;99733.34;10571473;28;20032;-39
2024/04/05 07:08:02;;;;;;;16.50;5.10;;;;;;;10.81;100.00;99727.34;10570792;28;20028;-39
2024/04/05 07:13:03;;;;;;;19.15;4.97;;;;;;;10.93;100.00;99724.97;10567378;28;20047;-39
2024/04/05 07:18:08;;;;;;;17.40;4.95;;;;;;;11.07;100.00;99714.81;10566812;28;20232;-41
2024/04/05 07:23:08;;;;;;;21.05;4.97;;;;;;;11.31;100.00;99718.72;10566613;28;20055;-39
2024/04/05 07:28:09;;;;;;;20.83;5.32;;;;;;;11.46;100.00;99715.50;10549936;27;20040;-41
2024/04/05 07:33:10;;;;;;;9.23;4.25;;;;;;;11.71;100.00;99708.97;10567551;27;20032;-38
2024/04/05 07:38:11;;;;;;;14.02;3.92;;;;;;;11.94;100.00;99696.25;10564584;28;20048;-39
2024/04/05 07:43:11;;;;;;;16.35;4.53;;;;;;;12.11;100.00;99683.41;10561711;28;20043;-40
2024/04/05 07:48:15;;;;;;;15.60;4.50;;;;;;;12.19;100.00;99672.19;10559063;28;20043;-39
2024/04/05 07:53:16;;;;;;;13.18;4.63;;;;;;;12.29;100.00;99654.84;10558510;28;20066;-39
2024/04/05 07:58:17;;;;;;;11.40;4.28;;;;;;;12.41;100.00;99652.38;10562079;28;20051;-39
2024/04/05 08:03:17;;;;;;;11.70;3.75;;;;;;;12.50;100.00;99649.88;10554833;28;20123;-41
2024/04/05 08:08:18;;;;;;;14.82;3.63;;;;;;;12.62;100.00;99643.88;10557262;28;20035;-41
2024/04/05 08:13:19;;;;;;;11.55;3.60;;;;;;;12.72;100.00;99643.16;10573531;28;20076;-39
2024/04/05 08:18:19;;;;;;;13.27;3.67;;;;;;;12.70;100.00;99634.38;10572783;28;20089;-39
2024/04/05 08:23:20;;;;;;;10.27;3.35;;;;;;;12.76;100.00;99616.09;10571496;28;20035;-39
2024/04/05 08:28:21;;;;;;;10.23;3.45;;;;;;;12.81;100.00;99600.41;10570258;28;20092;-40
2024/04/05 08:33:21;;;;;;;9.38;3.40;;;;;;;12.88;100.00;99589.13;10568484;28;20031;-40
2024/04/05 08:38:22;;;;;;;14.57;3.53;;;;;;;12.96;100.00;99597.06;10567099;28;20035;-38
2024/04/05 08:43:24;;;;;;;9.73;3.13;;;;;;;12.99;100.00;99592.72;10565851;28;20036;-36
2024/04/05 08:48:24;;;;;;;9.23;3.10;;;;;;;13.09;100.00;99588.44;10565222;28;20035;-40
2024/04/05 08:53:25;;;;;;;10.35;3.10;;;;;;;13.13;100.00;99587.63;10563095;28;20046;-40
2024/04/05 08:58:26;;;;;;;10.30;3.17;;;;;;;13.26;100.00;99587.72;10564048;28;20512;-40
2024/04/05 09:03:27;;;;;;;10.05;3.40;;;;;;;13.44;100.00;99580.00;10559612;28;20085;-38
2024/04/05 09:08:28;;;;;;;7.97;2.80;;;;;;;13.56;100.00;99574.84;10562324;28;20032;-41
2024/04/05 09:13:28;;;;;;;10.20;3.00;;;;;;;13.68;100.00;99547.81;10555546;28;20032;-40
2024/04/05 09:18:29;;;;;;;8.90;2.70;;;;;;;13.79;100.00;99543.47;10557692;28;20098;-40
2024/04/05 09:23:31;;;;;;;9.57;3.13;;;;;;;13.88;100.00;99540.91;10558434;28;20142;-39
2024/04/05 09:28:31;;;;;;;5.60;2.38;;;;;;;14.03;100.00;99537.47;10554795;28;20039;-40
2024/04/05 09:33:32;;;;;;;7.07;2.45;;;;;;;14.14;100.00;99532.25;10553689;28;20425;-40
2024/04/05 09:38:34;;;;;;;6.47;2.35;;;;;;;14.17;100.00;99517.34;10552595;28;20035;-39
2024/04/05 09:43:35;;;;;;;10.32;2.38;;;;;;;14.14;100.00;99514.75;10559483;28;20123;-39
2024/04/05 09:48:36;;;;;;;7.45;2.40;;;;;;;14.14;100.00;99514.75;10533593;28;20089;-39
2024/04/05 09:53:40;;;;;;;6.20;2.33;;;;;;;14.10;100.00;99512.09;10562475;28;20238;-39
2024/04/05 09:58:40;;;;;;;6.43;2.22;;;;;;;14.08;100.00;99482.28;10570508;28;20039;-38
2024/04/05 10:03:44;;;;;;;6.53;2.45;;;;;;;14.14;100.00;99467.44;10570787;28;20035;-40
2024/04/05 10:08:45;;;;;;;9.70;2.20;;;;;;;14.34;100.00;99450.84;10560695;28;20131;-39
2024/04/05 10:13:46;;;;;;;4.35;2.15;;;;;;;14.48;100.00;99433.31;10566424;28;20127;-41
2024/04/05 10:18:47;;;;;;;4.68;2.10;;;;;;;14.59;100.00;99425.50;10553598;28;20482;-39
2024/04/05 10:23:58;;;;;;;6.15;2.33;;;;;;;14.68;100.00;99422.84;10573183;28;20126;-39
2024/04/05 10:29:05;;;;;;;4.53;2.30;;;;;;;14.74;100.00;99407.06;10537181;28;20060;-41
2024/04/05 10:34:07;;;;;;;7.43;2.20;;;;;;;14.80;100.00;99393.03;10554281;28;20051;-38
2024/04/05 10:39:18;;;;;;;7.75;2.35;;;;;;;14.78;100.00;99392.16;10569483;28;20089;-40
2024/04/05 10:44:19;;;;;;;4.10;2.00;;;;;;;14.77;100.00;99386.00;10542527;28;20038;-40
2024/04/05 10:49:20;;;;;;;6.35;2.03;;;;;;;14.78;100.00;99386.88;10568457;28;20035;-42
2024/04/05 10:54:21;;;;;;;5.05;1.95;;;;;;;14.83;100.00;99380.75;10568106;28;20629;-39
2024/04/05 10:59:21;;;;;;;5.32;2.15;;;;;;;14.87;100.00;99394.75;10545609;28;20039;-39
2024/04/05 11:04:31;;;;;;;3.78;2.20;;;;;;;14.88;100.00;99420.22;10564692;28;20051;-40
2024/04/05 11:09:37;;;;;;;5.32;2.03;;;;;;;14.82;100.00;99431.63;10544825;28;20040;-40
2024/04/05 11:14:38;;;;;;;7.78;2.50;;;;;;;14.74;100.00;99433.34;10560498;28;20054;-41
2024/04/05 11:19:38;;;;;;;7.35;2.47;;;;;;;14.58;100.00;99431.59;10545637;28;20038;-40
2024/04/05 11:24:47;;;;;;;4.20;2.35;;;;;;;14.50;100.00;99412.31;10540798;28;20069;-39
2024/04/05 11:29:48;;;;;;;5.65;2.38;;;;;;;14.53;100.00;99444.78;10557250;28;20417;-40
2024/04/05 11:34:48;;;;;;;5.78;2.70;;;;;;;14.50;100.00;99442.09;10556628;28;20054;-41
2024/04/05 11:39:49;;;;;;;7.35;2.67;;;;;;;14.52;100.00;99450.88;10572246;28;20104;-38
2024/04/05 11:44:53;;;;;;;7.35;2.63;;;;;;;14.53;100.00;99444.78;10575311;28;20505;-41
2024/04/05 11:49:54;;;;;;;7.07;2.80;;;;;;;14.58;100.00;99387.78;10574193;28;20036;-39
2024/04/05 11:54:54;;;;;;;7.85;2.67;;;;;;;14.59;100.00;99365.00;10573177;28;20558;-39
2024/04/05 11:59:55;;;;;;;9.68;3.00;;;;;;;14.78;100.00;99386.88;10571792;28;20036;-39
2024/04/05 12:04:58;;;;;;;8.60;2.70;;;;;;;14.80;100.00;99395.66;10570430;28;20040;-39
2024/04/05 12:10:01;;;;;;;5.90;2.83;;;;;;;14.83;100.00;99393.03;10552722;28;20036;-38
2024/04/05 12:15:03;;;;;;;8.60;2.65;;;;;;;14.92;100.00;99384.25;10567598;28;20043;-41
2024/04/05 12:20:05;;;;;;;5.57;2.50;;;;;;;15.12;100.00;99378.94;10567132;28;20067;-39
2024/04/05 12:25:07;;;;;;;4.75;2.30;;;;;;;15.15;100.00;99398.22;10567620;27;20066;-39
2024/04/05 12:30:08;;;;;;;8.90;2.67;;;;;;;15.23;100.00;99407.00;10568956;27;20046;-39
2024/04/05 12:35:09;;;;;;;4.60;2.30;;;;;;;15.29;100.00;99416.63;10543637;28;20040;-39
2024/04/05 12:40:19;;;;;;;5.03;2.30;;;;;;;15.48;100.00;99417.47;10561236;28;20059;-39
2024/04/05 12:45:19;;;;;;;4.60;2.72;;;;;;;15.76;100.00;99431.41;10549547;28;20500;-41
2024/04/05 12:50:20;;;;;;;6.45;2.53;;;;;;;16.09;100.00;99425.09;10559777;28;20051;-40
2024/04/05 12:55:21;;;;;;;6.30;2.30;;;;;;;16.17;100.00;99427.69;10559113;28;20035;-39
2024/04/05 13:00:24;;;;;;;5.88;2.70;;;;;;;16.10;100.00;99415.44;10558906;28;20123;-40
2024/04/05 13:05:25;;;;;;;5.63;2.30;;;;;;;15.99;100.00;99420.78;10555864;28;20080;-39
2024/04/05 13:10:26;;;;;;;5.55;2.20;;;;;;;16.02;100.00;99395.28;10554084;28;20051;-39
2024/04/05 13:15:27;;;;;;;6.90;2.75;;;;;;;16.10;100.00;99386.44;10556555;28;20048;-39
2024/04/05 13:20:31;;;;;;;8.98;2.53;;;;;;;16.04;100.00;99407.56;10552693;28;20169;-41
2024/04/05 13:25:34;;;;;;;7.00;2.50;;;;;;;15.82;100.00;99410.28;10562094;28;20039;-39
2024/04/05 13:30:35;;;;;;;5.78;2.35;;;;;;;15.49;100.00;99430.59;10570223;28;20085;-40
2024/04/05 13:35:36;;;;;;;3.25;2.20;;;;;;;15.04;100.00;99443.00;10568577;28;20089;-39
2024/04/05 13:40:36;;;;;;;4.32;2.05;;;;;;;14.74;100.00;99438.63;10567157;28;20092;-42
2024/04/05 13:45:37;;;;;;;4.30;1.88;;;;;;;14.56;100.00;99451.78;10566519;28;20047;-40
2024/04/05 13:50:37;;;;;;;4.80;2.15;;;;;;;14.57;100.00;99432.50;10565126;28;20050;-39
2024/04/05 13:55:39;;;;;;;4.55;1.77;;;;;;;14.57;100.00;99422.84;10563857;28;20066;-39
2024/04/05 14:00:40;;;;;;;6.82;1.90;;;;;;;14.59;100.00;99414.97;10562373;28;20040;-39
2024/04/05 14:05:41;;;;;;;3.70;1.80;;;;;;;14.80;100.00;99401.78;10561834;28;20040;-40
2024/04/05 14:10:43;;;;;;;5.85;1.80;;;;;;;14.73;100.00;99407.06;10560880;28;20414;-40
2024/04/05 14:15:44;;;;;;;5.68;1.77;;;;;;;14.73;100.00;99413.22;10561200;28;20044;-41
2024/04/05 14:20:45;;;;;;;4.53;1.80;;;;;;;14.86;100.00;99403.53;10558472;28;20036;-40
2024/04/05 14:25:46;;;;;;;3.97;1.77;;;;;;;14.82;100.00;99415.84;10557207;28;20051;-37
2024/04/05 14:30:57;;;;;;;4.32;1.60;;;;;;;14.82;100.00;99434.25;10556294;28;20044;-39
2024/04/05 14:36:07;;;;;;;3.00;1.90;;;;;;;14.84;100.00;99452.63;10552322;28;20520;-40
2024/04/05 14:41:12;;;;;;;3.08;2.00;;;;;;;14.71;100.00;99458.78;10553790;28;20043;-39
2024/04/05 14:46:15;;;;;;;3.83;2.03;;;;;;;14.43;100.00;99464.00;10552841;28;20042;-40
2024/04/05 14:51:16;;;;;;;7.43;2.10;;;;;;;14.21;100.00;99497.25;10553996;28;20071;-40
2024/04/05 14:56:17;;;;;;;7.30;2.13;;;;;;;14.15;100.00;99491.97;10550256;28;20038;-39
2024/04/05 15:01:18;;;;;;;4.90;2.00;;;;;;;14.08;100.00;99501.59;10549259;28;20035;-40
2024/04/05 15:06:19;;;;;;;6.88;1.98;;;;;;;14.06;100.00;99502.44;10561054;28;20092;-40
2024/04/05 15:11:20;;;;;;;6.03;1.85;;;;;;;14.15;100.00;99492.84;10571260;28;20515;-39
2024/04/05 15:16:20;;;;;;;3.75;1.80;;;;;;;14.19;100.00;99506.88;10570802;28;20040;-41
2024/04/05 15:21:22;;;;;;;4.85;1.80;;;;;;;14.14;100.00;99519.09;10573236;28;20031;-40
2024/04/05 15:26:22;;;;;;;3.58;1.70;;;;;;;14.14;100.00;99514.75;10573685;28;20043;-41
2024/04/05 15:31:23;;;;;;;5.00;1.90;;;;;;;14.09;100.00;99516.47;10570999;28;20043;-40
2024/04/05 15:36:24;;;;;;;4.78;2.15;;;;;;;14.13;100.00;99515.59;10570737;28;20031;-40
2024/04/05 15:41:24;;;;;;;3.25;2.03;;;;;;;14.40;100.00;99495.56;10570198;28;20035;-42
2024/04/05 15:46:26;;;;;;;6.07;2.20;;;;;;;14.71;100.00;99496.47;10568310;28;20539;-39
2024/04/05 15:51:26;;;;;;;3.45;2.05;;;;;;;14.95;100.00;99505.28;10551311;28;20063;-41
2024/04/05 15:56:27;;;;;;;3.63;2.00;;;;;;;14.91;100.00;99520.19;10566363;28;20092;-40
2024/04/05 16:01:27;;;;;;;5.30;2.10;;;;;;;14.84;100.00;99524.56;10566309;28;20039;-40
2024/04/05 16:06:28;;;;;;;4.57;2.33;;;;;;;14.86;100.00;99532.47;10562796;28;20489;-38
2024/04/05 16:11:29;;;;;;;4.75;2.30;;;;;;;14.96;100.00;99544.72;10563913;28;20042;-41
2024/04/05 16:16:30;;;;;;;4.30;2.17;;;;;;;14.99;100.00;99554.38;10560399;28;20093;-39
2024/04/05 16:21:30;;;;;;;4.18;2.00;;;;;;;14.86;100.00;99556.13;10563078;28;20036;-42
2024/04/05 16:26:31;;;;;;;3.38;2.03;;;;;;;14.75;100.00;99564.03;10560909;28;20413;-41
2024/04/05 16:31:32;;;;;;;4.10;2.25;;;;;;;14.68;100.00;99564.84;10556471;28;20047;-42
2024/04/05 16:36:34;;;;;;;4.63;2.30;;;;;;;14.61;100.00;99577.13;10555411;28;20054;-39
2024/04/05 16:41:34;;;;;;;4.20;2.15;;;;;;;14.56;100.00;99573.63;10555464;28;20088;-40
2024/04/05 16:46:35;;;;;;;3.90;2.38;;;;;;;14.56;100.00;99578.00;10550271;28;20032;-41
2024/04/05 16:51:39;;;;;;;4.43;2.53;;;;;;;14.51;100.00;99582.38;10534302;28;20131;-40
2024/04/05 16:56:39;;;;;;;6.15;2.70;;;;;;;14.50;100.00;99602.50;10553983;28;20043;-40
2024/04/05 17:01:40;;;;;;;5.95;2.55;;;;;;;14.47;100.00;99594.59;10570204;28;20042;-39
2024/04/05 17:06:41;;;;;;;4.72;2.45;;;;;;;14.44;100.00;99602.47;10569061;28;20032;-41
2024/04/05 17:11:43;;;;;;;5.28;2.38;;;;;;;14.42;100.00;99619.09;10568094;28;20096;-39
2024/04/05 17:16:43;;;;;;;4.97;2.40;;;;;;;14.38;100.00;99602.44;10565897;28;20073;-39
2024/04/05 17:21:45;;;;;;;5.25;2.50;;;;;;;14.36;100.00;99617.31;10549157;28;20043;-40
2024/04/05 17:26:46;;;;;;;6.43;2.50;;;;;;;14.34;100.00;99613.81;10563617;28;20048;-41
2024/04/05 17:31:47;;;;;;;5.05;2.55;;;;;;;14.34;100.00;99627.84;10563255;28;20302;-39
2024/04/05 17:36:48;;;;;;;6.10;2.65;;;;;;;14.30;100.00;99623.44;10561798;28;20028;-44
2024/04/05 17:41:49;;;;;;;6.97;2.80;;;;;;;14.26;100.00;99633.94;10561377;28;20047;-40
2024/04/05 17:46:50;;;;;;;6.07;3.03;;;;;;;14.20;100.00;99639.16;10560886;28;20036;-41
2024/04/05 17:51:52;;;;;;;6.68;2.70;;;;;;;14.14;100.00;99642.63;10558837;28;20096;-40
2024/04/05 17:56:52;;;;;;;6.85;2.78;;;;;;;14.09;100.00;99652.25;10557706;28;20036;-42
2024/04/05 18:01:53;;;;;;;5.40;2.65;;;;;;;14.05;100.00;99659.22;10558594;28;20511;-39
2024/04/05 18:06:54;;;;;;;4.68;2.70;;;;;;;14.02;100.00;99660.94;10558645;28;20032;-39
2024/04/05 18:11:55;;;;;;;7.40;3.00;;;;;;;14.00;100.00;99670.56;10554298;28;20035;-39
2024/04/05 18:16:55;;;;;;;4.78;2.78;;;;;;;13.93;100.00;99674.91;10553091;28;20039;-40
2024/04/05 18:21:56;;;;;;;5.30;2.95;;;;;;;13.88;100.00;99682.75;10554245;28;20274;-40
2024/04/05 18:26:57;;;;;;;6.85;3.20;;;;;;;13.80;100.00;99687.06;10550384;28;20028;-40
2024/04/05 18:32:01;;;;;;;6.70;3.60;;;;;;;13.78;100.00;99696.69;10549963;28;20128;-39
2024/04/05 18:37:03;;;;;;;5.85;3.15;;;;;;;13.70;100.00;99699.25;10546435;28;20051;-40
2024/04/05 18:42:08;;;;;;;6.30;3.20;;;;;;;13.67;100.00;99712.34;10558687;28;20047;-40
2024/04/05 18:47:10;;;;;;;6.32;3.17;;;;;;;13.74;100.00;99717.66;10558953;28;20039;-38
2024/04/05 18:52:11;;;;;;;5.80;3.30;;;;;;;13.74;100.00;99721.16;10555854;28;20501;-40
2024/04/05 18:57:11;;;;;;;6.10;3.08;;;;;;;13.76;100.00;99727.28;10573659;28;20039;-39
2024/04/05 19:02:16;;;;;;;6.57;3.10;;;;;;;13.77;100.00;99733.44;10571756;28;20088;-40
2024/04/05 19:07:17;;;;;;;6.85;3.00;;;;;;;13.76;100.00;99745.66;10553494;28;20480;-39
2024/04/05 19:12:18;;;;;;;4.68;2.85;;;;;;;13.73;100.00;99752.66;10551838;28;20028;-41
2024/04/05 19:17:19;;;;;;;6.25;3.00;;;;;;;13.67;100.00;99766.63;10568407;28;20467;-45
2024/04/05 19:22:20;;;;;;;7.57;3.15;;;;;;;13.62;100.00;99766.56;10563385;28;20042;-41
2024/04/05 19:27:24;;;;;;;7.97;3.20;;;;;;;13.63;100.00;99759.56;10548442;28;20039;-37
2024/04/05 19:32:24;;;;;;;5.15;3.20;;;;;;;13.65;100.00;99755.22;10564804;28;20038;-40
2024/04/05 19:37:25;;;;;;;5.97;3.20;;;;;;;13.69;100.00;99772.75;10563427;28;20417;-39
2024/04/05 19:42:26;;;;;;;7.22;3.10;;;;;;;13.69;100.00;99764.88;10561606;28;20036;-39
2024/04/05 19:47:27;;;;;;;5.80;3.17;;;;;;;13.67;100.00;99767.50;10560570;28;20527;-40
2024/04/05 19:52:28;;;;;;;5.38;3.30;;;;;;;13.68;100.00;99771.88;10526936;28;20032;-41
2024/04/05 19:57:28;;;;;;;5.35;3.50;;;;;;;13.64;100.00;99790.22;10561737;28;20366;-39
2024/04/05 20:02:29;;;;;;;5.85;3.10;;;;;;;13.58;100.00;99787.53;10558052;28;20062;-41
2024/04/05 20:07:30;;;;;;;6.72;3.40;;;;;;;13.54;100.00;99791.88;10537911;28;20040;-40
2024/04/05 20:12:30;;;;;;;6.60;3.97;;;;;;;13.48;100.00;99789.19;10555516;28;20036;-42
2024/04/05 20:17:33;;;;;;;6.80;3.50;;;;;;;13.49;100.00;99790.94;10557588;28;20032;-41
2024/04/05 20:22:34;;;;;;;5.35;3.50;;;;;;;13.44;100.00;99797.88;10561281;28;20401;-40
2024/04/05 20:27:34;;;;;;;6.75;3.53;;;;;;;13.44;100.00;99792.63;10572646;28;20035;-39
2024/04/05 20:32:35;;;;;;;6.05;3.22;;;;;;;13.44;100.00;99795.25;10571510;28;20450;-42
2024/04/05 20:37:36;;;;;;;6.63;3.22;;;;;;;13.47;100.00;99798.78;10570960;28;20451;-40
2024/04/05 20:42:37;;;;;;;7.78;3.22;;;;;;;13.45;100.00;99799.66;10568538;28;20095;-40
2024/04/05 20:47:38;;;;;;;5.85;3.25;;;;;;;13.43;100.00;99801.38;10568660;28;20043;-41
2024/04/05 20:52:39;;;;;;;5.72;3.30;;;;;;;13.46;100.00;99809.28;10566848;28;20404;-41
2024/04/05 20:57:39;;;;;;;6.47;3.45;;;;;;;13.46;100.00;99818.03;10566660;28;20077;-38
2024/04/05 21:02:40;;;;;;;5.60;3.30;;;;;;;13.44;100.00;99814.50;10563328;28;20066;-40
2024/04/05 21:07:41;;;;;;;6.57;3.28;;;;;;;13.43;100.00;99807.50;10564402;28;20493;-39
2024/04/05 21:12:41;;;;;;;7.90;3.60;;;;;;;13.42;100.00;99818.88;10564027;28;20040;-40
2024/04/05 21:17:42;;;;;;;6.25;3.10;;;;;;;13.40;100.00;99812.72;10563409;28;20046;-41
2024/04/05 21:22:43;;;;;;;6.63;2.90;;;;;;;13.45;100.00;99818.03;10560958;28;20394;-39
2024/04/05 21:27:44;;;;;;;5.50;3.17;;;;;;;13.47;100.00;99824.16;10558607;28;20042;-39
2024/04/05 21:32:45;;;;;;;6.03;3.22;;;;;;;13.43;100.00;99817.13;10562881;28;20721;-38
2024/04/05 21:37:45;;;;;;;6.25;3.10;;;;;;;13.38;100.00;99824.97;10556921;28;20115;-39
2024/04/05 21:42:46;;;;;;;6.90;2.85;;;;;;;13.38;100.00;99827.59;10560047;28;20040;-40
2024/04/05 21:47:47;;;;;;;7.22;2.90;;;;;;;13.37;100.00;99822.31;10568075;27;20509;-40
2024/04/05 21:52:48;;;;;;;6.50;3.05;;;;;;;13.40;100.00;99819.72;10556163;28;20050;-42
2024/04/05 21:57:48;;;;;;;5.63;3.35;;;;;;;13.41;100.00;99818.84;10557570;28;20028;-39
2024/04/05 22:02:49;;;;;;;8.85;3.40;;;;;;;13.38;100.00;99810.94;10558970;28;20294;-39
2024/04/05 22:07:50;;;;;;;5.07;3.30;;;;;;;13.37;100.00;99817.94;10557707;28;20043;-42
2024/04/05 22:12:50;;;;;;;6.65;3.30;;;;;;;13.36;100.00;99815.31;10576457;28;20127;-39
2024/04/05 22:17:51;;;;;;;5.95;3.22;;;;;;;13.36;100.00;99824.06;10583730;28;20489;-40
2024/04/05 22:22:52;;;;;;;5.88;3.10;;;;;;;13.35;100.00;99830.19;10581669;28;20039;-40
2024/04/05 22:27:55;;;;;;;6.80;3.10;;;;;;;13.33;100.00;99823.16;10580022;28;20035;-37
2024/04/05 22:32:56;;;;;;;5.55;3.05;;;;;;;13.33;100.00;99831.88;10576075;28;20036;-40
2024/04/05 22:37:57;;;;;;;4.95;3.13;;;;;;;13.36;100.00;99828.44;10578315;28;20032;-40
2024/04/05 22:42:57;;;;;;;7.78;3.05;;;;;;;13.35;100.00;99839.75;10578338;28;20100;-38
2024/04/05 22:47:58;;;;;;;5.43;2.80;;;;;;;13.33;100.00;99847.63;10575454;28;20038;-39
2024/04/05 22:52:59;;;;;;;7.07;2.70;;;;;;;13.35;100.00;99853.81;10570101;27;20078;-39
2024/04/05 22:58:01;;;;;;;4.47;2.60;;;;;;;13.39;100.00;99867.84;10573735;28;20413;-41